createdAt,value
2022-11-06T00:01:57.142Z,22.45
2022-11-06T00:04:25.166Z,20.42
2022-11-06T00:06:52.127Z,21.05
2022-11-06T00:09:21.588Z,14.55
2022-11-06T00:11:50.495Z,15.20
2022-11-06T00:14:19.091Z,18.98
2022-11-06T00:16:49.206Z,15.20
2022-11-06T00:19:17.510Z,19.85
2022-11-06T00:21:46.090Z,21.02
2022-11-06T00:24:15.567Z,19.30
2022-11-06T00:26:43.911Z,20.58
2022-11-06T00:29:14.654Z,18.65
2022-11-06T00:31:43.164Z,19.85
2022-11-06T00:34:12.689Z,16.40
2022-11-06T00:36:40.576Z,19.70
2022-11-06T00:39:08.395Z,15.35
2022-11-06T00:41:36.377Z,13.20
2022-11-06T00:44:05.091Z,18.73
2022-11-06T00:46:33.133Z,16.85
2022-11-06T00:49:00.988Z,17.92
2022-11-06T00:51:32.742Z,15.70
2022-11-06T00:54:03.922Z,16.77
2022-11-06T00:56:32.550Z,18.38
2022-11-06T00:59:01.434Z,13.40
2022-11-06T01:01:31.730Z,15.35
2022-11-06T01:06:32.010Z,15.07
2022-11-06T01:09:00.712Z,17.13
2022-11-06T01:11:46.441Z,14.80
2022-11-06T01:14:19.630Z,19.92
2022-11-06T01:16:47.586Z,13.57
2022-11-06T01:19:17.631Z,16.60
2022-11-06T01:21:48.213Z,16.83
2022-11-06T01:24:18.185Z,11.63
2022-11-06T01:27:05.326Z,16.35
2022-11-06T01:29:34.545Z,19.08
2022-11-06T01:32:02.452Z,15.57
2022-11-06T01:34:30.630Z,13.00
2022-11-06T01:37:00.042Z,18.70
2022-11-06T01:39:27.852Z,11.55
2022-11-06T01:41:56.268Z,14.10
2022-11-06T01:45:17.181Z,16.15
2022-11-06T01:47:45.611Z,14.55
2022-11-06T01:50:15.459Z,12.15
2022-11-06T01:52:47.641Z,14.65
2022-11-06T01:55:19.131Z,16.60
2022-11-06T01:57:48.370Z,14.82
2022-11-06T02:00:16.583Z,17.13
2022-11-06T02:02:45.188Z,16.60
2022-11-06T02:05:13.350Z,16.88
2022-11-06T02:07:43.676Z,17.33
2022-11-06T02:10:12.933Z,19.33
2022-11-06T02:12:49.688Z,14.68
2022-11-06T02:15:28.308Z,17.40
2022-11-06T02:18:13.655Z,16.20
2022-11-06T02:20:53.049Z,19.70
2022-11-06T02:23:35.382Z,18.67
2022-11-06T02:26:19.030Z,16.92
2022-11-06T02:28:54.086Z,18.35
2022-11-06T02:31:27.360Z,20.33
2022-11-06T02:34:00.537Z,20.83
2022-11-06T02:36:33.034Z,16.55
2022-11-06T02:39:06.694Z,18.60
2022-11-06T02:41:38.350Z,18.92
2022-11-06T02:44:12.872Z,17.27
2022-11-06T02:46:44.892Z,19.58
2022-11-06T02:49:18.419Z,16.15
2022-11-06T02:51:50.790Z,15.88
2022-11-06T02:54:21.165Z,17.80
2022-11-06T02:59:23.276Z,15.38
2022-11-06T03:01:56.575Z,16.67
2022-11-06T03:04:27.916Z,17.17
2022-11-06T03:07:01.977Z,16.55
2022-11-06T03:09:32.999Z,17.50
2022-11-06T03:12:05.163Z,17.88
2022-11-06T03:14:41.657Z,18.75
2022-11-06T03:17:17.561Z,18.30
2022-11-06T03:19:49.910Z,18.35
2022-11-06T03:22:27.705Z,20.92
2022-11-06T03:25:01.614Z,18.17
2022-11-06T03:27:36.129Z,20.15
2022-11-06T03:30:10.402Z,18.15
2022-11-06T03:32:47.553Z,23.30
2022-11-06T03:35:22.965Z,21.40
2022-11-06T03:37:58.143Z,22.38
2022-11-06T03:40:30.855Z,20.85
2022-11-06T03:43:02.126Z,20.45
2022-11-06T03:45:33.672Z,23.83
2022-11-06T03:48:05.878Z,21.33
2022-11-06T03:50:37.813Z,20.63
2022-11-06T03:53:10.845Z,19.77
2022-11-06T03:55:44.253Z,18.58
2022-11-06T03:58:15.392Z,19.90
2022-11-06T04:00:45.828Z,20.80
2022-11-06T04:03:19.905Z,17.88
2022-11-06T04:05:53.022Z,18.42
2022-11-06T04:08:40.728Z,23.08
2022-11-06T04:11:29.263Z,19.52
2022-11-06T04:14:01.871Z,19.85
2022-11-06T04:16:35.937Z,19.55
2022-11-06T04:19:04.654Z,16.60
2022-11-06T04:21:46.909Z,16.00
2022-11-06T04:24:46.997Z,19.42
2022-11-06T04:27:24.720Z,20.00
2022-11-06T04:30:07.402Z,23.27
2022-11-06T04:32:57.163Z,19.55
2022-11-06T04:35:35.277Z,17.77
2022-11-06T04:38:08.045Z,18.25
2022-11-06T04:40:45.022Z,18.02
2022-11-06T04:43:20.674Z,18.70
2022-11-06T04:45:53.031Z,17.63
2022-11-06T04:48:23.391Z,15.50
2022-11-06T04:55:54.997Z,17.55
2022-11-06T04:58:23.102Z,13.00
2022-11-06T05:00:52.435Z,15.55
2022-11-06T05:03:21.756Z,19.13
2022-11-06T05:05:49.589Z,16.85
2022-11-06T05:08:19.330Z,20.85
2022-11-06T05:10:47.741Z,21.60
2022-11-06T05:13:16.099Z,15.63
2022-11-06T05:15:43.954Z,15.98
2022-11-06T05:18:12.210Z,17.17
2022-11-06T05:20:41.726Z,19.30
2022-11-06T05:23:08.533Z,18.38
2022-11-06T05:25:37.806Z,17.45
2022-11-06T05:28:07.121Z,16.17
2022-11-06T05:30:35.983Z,15.38
2022-11-06T05:33:03.927Z,16.10
2022-11-06T05:35:31.769Z,14.77
2022-11-06T05:38:02.188Z,22.25
2022-11-06T05:40:30.351Z,14.68
2022-11-06T05:42:58.157Z,16.75
2022-11-06T05:45:25.952Z,16.20
2022-11-06T05:47:53.791Z,19.08
2022-11-06T05:50:21.608Z,15.38
2022-11-06T05:52:49.444Z,18.10
2022-11-06T05:55:18.683Z,14.63
2022-11-06T05:57:46.639Z,13.70
2022-11-06T06:00:15.688Z,14.48
2022-11-06T06:02:44.083Z,16.83
2022-11-06T06:05:12.219Z,16.85
2022-11-06T06:07:40.044Z,16.70
2022-11-06T06:10:09.794Z,15.35
2022-11-06T06:12:39.591Z,13.30
2022-11-06T06:15:08.633Z,14.80
2022-11-06T06:17:36.645Z,16.60
2022-11-06T06:20:05.871Z,17.85
2022-11-06T06:22:33.685Z,14.98
2022-11-06T06:25:01.613Z,14.07
2022-11-06T06:27:31.302Z,15.68
2022-11-06T06:30:00.857Z,15.35
2022-11-06T06:32:28.691Z,20.03
2022-11-06T06:34:56.474Z,24.27
2022-11-06T06:37:24.332Z,17.50
2022-11-06T06:39:52.121Z,16.83
2022-11-06T06:42:19.846Z,16.45
2022-11-06T06:44:47.795Z,14.65
2022-11-06T06:47:18.156Z,16.80
2022-11-06T06:52:13.990Z,16.60
2022-11-06T06:54:41.939Z,15.65
2022-11-06T06:57:10.084Z,15.25
2022-11-06T06:59:37.923Z,17.15
2022-11-06T07:02:05.959Z,13.63
2022-11-06T07:04:35.099Z,20.83
2022-11-06T07:07:03.040Z,18.77
2022-11-06T07:09:32.160Z,15.27
2022-11-06T07:12:00.265Z,14.30
2022-11-06T07:14:28.044Z,16.58
2022-11-06T07:16:55.847Z,20.67
2022-11-06T07:19:23.647Z,18.30
2022-11-06T07:21:53.686Z,20.98
2022-11-06T07:24:21.482Z,18.25
2022-11-06T07:26:49.913Z,19.30
2022-11-06T07:29:17.789Z,20.67
2022-11-06T07:31:48.145Z,14.27
2022-11-06T07:34:16.169Z,17.90
2022-11-06T07:36:44.018Z,23.27
2022-11-06T07:39:13.137Z,23.65
2022-11-06T07:41:40.988Z,20.85
2022-11-06T07:44:08.802Z,23.65
2022-11-06T07:46:36.691Z,19.10
2022-11-06T07:49:04.827Z,20.15
2022-11-06T07:51:33.706Z,19.15
2022-11-06T07:54:01.526Z,16.40
2022-11-06T07:56:31.063Z,17.52
2022-11-06T07:58:59.010Z,18.47
2022-11-06T08:01:27.092Z,17.02
2022-11-06T08:03:55.033Z,15.07
2022-11-06T08:06:23.182Z,17.52
2022-11-06T08:08:54.835Z,18.70
2022-11-06T08:11:25.612Z,16.00
2022-11-06T08:13:54.725Z,18.25
2022-11-06T08:16:22.580Z,16.60
2022-11-06T08:18:50.347Z,16.40
2022-11-06T08:21:19.173Z,18.67
2022-11-06T08:23:47.000Z,16.92
2022-11-06T08:26:14.886Z,18.25
2022-11-06T08:28:42.817Z,14.82
2022-11-06T08:31:12.191Z,14.27
2022-11-06T08:33:40.394Z,13.65
2022-11-06T08:36:10.180Z,19.27
2022-11-06T08:38:37.998Z,16.15
2022-11-06T08:41:06.758Z,18.63
2022-11-06T08:43:34.782Z,17.23
2022-11-06T08:46:03.385Z,17.17
2022-11-06T08:48:35.305Z,16.20
2022-11-06T08:51:04.873Z,16.90
2022-11-06T08:53:32.758Z,15.23
2022-11-06T08:56:00.710Z,14.30
2022-11-06T08:58:28.566Z,15.75
2022-11-06T09:00:56.527Z,15.55
2022-11-06T09:03:24.324Z,14.85
2022-11-06T09:05:53.532Z,17.08
2022-11-06T09:08:21.417Z,15.60
2022-11-06T09:10:50.438Z,16.08
2022-11-06T09:13:20.011Z,16.15
2022-11-06T09:15:47.791Z,15.30
2022-11-06T09:18:15.581Z,13.65
2022-11-06T09:20:43.401Z,14.32
2022-11-06T09:23:13.133Z,16.60
2022-11-06T09:25:41.123Z,13.75
2022-11-06T09:28:08.857Z,13.35
2022-11-06T09:30:36.884Z,14.18
2022-11-06T09:33:09.175Z,15.40
2022-11-06T09:35:40.147Z,13.57
2022-11-06T09:38:10.903Z,14.07
2022-11-06T09:40:44.968Z,15.15
2022-11-06T09:43:43.216Z,12.90
2022-11-06T09:46:20.096Z,14.90
2022-11-06T09:48:53.368Z,14.40
2022-11-06T09:51:30.251Z,14.43
2022-11-06T09:54:04.892Z,14.38
2022-11-06T09:56:37.912Z,14.80
2022-11-06T09:59:10.178Z,15.25
2022-11-06T10:01:44.352Z,12.45
2022-11-06T10:04:25.218Z,12.80
2022-11-06T10:06:54.394Z,14.43
2022-11-06T10:09:22.249Z,16.17
2022-11-06T10:12:08.924Z,13.90
2022-11-06T10:14:53.242Z,12.75
2022-11-06T10:17:34.742Z,12.70
2022-11-06T10:20:13.653Z,12.80
2022-11-06T10:22:43.266Z,13.23
2022-11-06T10:25:20.834Z,15.10
2022-11-06T10:28:01.946Z,11.82
2022-11-06T10:30:38.784Z,12.95
2022-11-06T10:33:19.919Z,12.95
2022-11-06T10:35:55.603Z,12.70
2022-11-06T10:38:27.190Z,14.02
2022-11-06T10:40:56.632Z,14.70
2022-11-06T10:43:33.149Z,11.70
2022-11-06T10:46:10.675Z,12.70
2022-11-06T10:48:41.912Z,12.65
2022-11-06T10:51:28.387Z,16.17
2022-11-06T10:54:06.918Z,12.73
2022-11-06T10:56:55.497Z,13.07
2022-11-06T10:59:25.913Z,12.05
2022-11-06T11:01:54.083Z,15.05
2022-11-06T11:04:21.960Z,9.90
2022-11-06T11:06:49.786Z,10.30
2022-11-06T11:09:38.622Z,10.25
2022-11-06T11:12:06.660Z,10.98
2022-11-06T11:14:35.913Z,10.27
2022-11-06T11:17:09.189Z,10.88
2022-11-06T11:19:38.725Z,9.52
2022-11-06T11:22:18.681Z,10.17
2022-11-06T11:25:01.108Z,10.77
2022-11-06T11:27:29.848Z,10.02
2022-11-06T11:29:59.361Z,11.52
2022-11-06T11:32:30.357Z,11.80
2022-11-06T11:34:59.198Z,13.45
2022-11-06T11:37:29.989Z,14.93
2022-11-06T11:40:22.405Z,14.02
2022-11-06T11:42:50.579Z,13.02
2022-11-06T11:45:21.790Z,12.80
2022-11-06T11:47:51.606Z,12.95
2022-11-06T11:50:29.708Z,12.50
2022-11-06T11:53:05.607Z,15.23
2022-11-06T11:55:41.495Z,16.40
2022-11-06T11:58:21.488Z,15.38
2022-11-06T12:00:54.416Z,14.07
2022-11-06T12:03:23.957Z,15.38
2022-11-06T12:05:53.501Z,15.77
2022-11-06T12:08:26.284Z,13.63
2022-11-06T12:10:54.271Z,15.02
2022-11-06T12:13:23.320Z,15.57
2022-11-06T12:15:57.297Z,12.88
2022-11-06T12:18:29.684Z,15.32
2022-11-06T12:21:00.931Z,14.95
2022-11-06T12:23:35.701Z,17.27
2022-11-06T12:26:10.528Z,13.70
2022-11-06T12:28:42.920Z,15.27
2022-11-06T12:31:18.699Z,14.95
2022-11-06T12:34:06.804Z,16.13
2022-11-06T12:36:42.434Z,16.52
2022-11-06T12:39:15.098Z,14.70
2022-11-06T12:41:46.866Z,16.95
2022-11-06T12:44:17.281Z,16.13
2022-11-06T12:50:02.189Z,12.55
2022-11-06T12:52:43.666Z,13.85
2022-11-06T12:55:20.150Z,14.95
2022-11-06T12:58:03.908Z,13.07
2022-11-06T13:00:37.486Z,14.40
2022-11-06T13:03:24.647Z,13.98
2022-11-06T13:06:00.624Z,13.40
2022-11-06T13:08:37.797Z,12.60
2022-11-06T13:11:18.723Z,12.40
2022-11-06T13:14:03.158Z,14.80
2022-11-06T13:16:39.780Z,14.65
2022-11-06T13:19:15.476Z,13.23
2022-11-06T13:22:07.953Z,16.23
2022-11-06T13:24:41.395Z,14.27
2022-11-06T13:27:17.644Z,14.15
2022-11-06T13:29:46.632Z,13.57
2022-11-06T13:32:18.181Z,16.00
2022-11-06T13:34:50.581Z,17.25
2022-11-06T13:37:21.758Z,14.00
2022-11-06T13:39:54.858Z,15.10
2022-11-06T13:42:28.369Z,16.27
2022-11-06T13:44:57.456Z,16.35
2022-11-06T13:47:32.094Z,13.63
2022-11-06T13:50:09.383Z,14.55
2022-11-06T13:52:46.768Z,13.23
2022-11-06T13:55:25.295Z,12.63
2022-11-06T13:58:22.108Z,13.02
2022-11-06T14:01:04.166Z,13.50
2022-11-06T14:03:51.215Z,14.35
2022-11-06T14:06:22.854Z,11.90
2022-11-06T14:08:53.611Z,13.15
2022-11-06T14:11:26.833Z,12.95
2022-11-06T14:14:01.104Z,13.32
2022-11-06T14:16:31.895Z,12.88
2022-11-06T14:19:03.842Z,13.85
2022-11-06T14:21:47.158Z,13.90
2022-11-06T14:24:40.194Z,14.75
2022-11-06T14:27:13.035Z,15.35
2022-11-06T14:30:00.502Z,12.70
2022-11-06T14:32:43.575Z,14.35
2022-11-06T14:35:51.191Z,12.40
2022-11-06T14:38:37.876Z,13.93
2022-11-06T14:41:51.116Z,15.75
2022-11-06T14:44:39.440Z,12.60
2022-11-06T14:47:10.342Z,13.65
2022-11-06T14:49:43.793Z,15.27
2022-11-06T14:52:14.823Z,16.13
2022-11-06T14:54:53.665Z,12.88
2022-11-06T14:57:46.320Z,13.25
2022-11-06T15:00:34.251Z,14.25
2022-11-06T15:03:04.566Z,17.42
2022-11-06T15:05:41.861Z,12.85
2022-11-06T15:08:10.508Z,14.02
2022-11-06T15:10:53.846Z,15.73
2022-11-06T15:13:27.759Z,11.88
2022-11-06T15:15:59.418Z,12.48
2022-11-06T15:18:28.076Z,12.13
2022-11-06T15:20:58.196Z,14.27
2022-11-06T15:23:30.060Z,13.73
2022-11-06T15:26:09.625Z,14.05
2022-11-06T15:28:45.453Z,13.97
2022-11-06T15:31:16.861Z,15.32
2022-11-06T15:34:00.994Z,15.13
2022-11-06T15:36:33.480Z,15.63
2022-11-06T15:39:02.138Z,16.83
2022-11-06T15:41:31.349Z,15.85
2022-11-06T15:43:59.859Z,18.17
2022-11-06T15:46:29.398Z,18.15
2022-11-06T15:49:17.223Z,20.00
2022-11-06T15:51:56.039Z,19.73
2022-11-06T15:54:35.960Z,21.20
2022-11-06T15:57:14.605Z,18.05
2022-11-06T15:59:42.480Z,21.60
2022-11-06T16:02:16.840Z,26.08
2022-11-06T16:04:45.641Z,21.45
2022-11-06T16:07:14.174Z,25.55
2022-11-06T16:09:50.303Z,22.95
2022-11-06T16:12:45.584Z,22.27
2022-11-06T16:15:48.708Z,26.48
2022-11-06T16:18:22.496Z,22.48
2022-11-06T16:20:53.616Z,23.30
2022-11-06T16:23:32.457Z,20.38
2022-11-06T16:26:06.522Z,23.13
2022-11-06T16:28:36.417Z,21.95
2022-11-06T16:31:11.642Z,22.60
2022-11-06T16:33:39.446Z,26.90
2022-11-06T16:36:12.510Z,23.88
2022-11-06T16:38:43.627Z,23.75
2022-11-06T16:41:33.598Z,27.83
2022-11-06T16:44:30.784Z,32.15
2022-11-06T16:47:15.100Z,37.28
2022-11-06T16:49:48.944Z,35.83
2022-11-06T16:52:25.368Z,27.17
2022-11-06T16:54:56.633Z,29.55
2022-11-06T16:57:27.134Z,26.60
2022-11-06T17:02:32.657Z,28.45
2022-11-06T17:05:09.189Z,24.25
2022-11-06T17:07:37.093Z,27.73
2022-11-06T17:10:27.736Z,27.45
2022-11-06T17:15:25.219Z,25.65
2022-11-06T17:17:53.060Z,25.23
2022-11-06T17:20:20.898Z,23.13
2022-11-06T17:22:49.988Z,29.85
2022-11-06T17:25:17.844Z,24.73
2022-11-06T17:27:45.620Z,26.55
2022-11-06T17:30:15.748Z,26.33
2022-11-06T17:32:44.911Z,25.70
2022-11-06T17:35:12.702Z,28.80
2022-11-06T17:37:40.708Z,25.40
2022-11-06T17:40:09.689Z,29.20
2022-11-06T17:42:37.580Z,28.42
2022-11-06T17:45:06.021Z,28.05
2022-11-06T17:47:33.798Z,26.10
2022-11-06T17:50:02.951Z,28.23
2022-11-06T17:52:30.790Z,30.73
2022-11-06T17:54:58.692Z,27.30
2022-11-06T17:57:26.533Z,29.35
2022-11-06T17:59:54.322Z,30.58
2022-11-06T18:02:41.238Z,26.25
2022-11-06T18:05:11.513Z,21.88
2022-11-06T18:07:39.282Z,21.73
2022-11-06T18:10:08.009Z,24.83
2022-11-06T18:12:35.798Z,25.73
2022-11-06T18:15:03.585Z,24.02
2022-11-06T18:17:31.390Z,26.27
2022-11-06T18:19:59.213Z,28.77
2022-11-06T18:22:28.567Z,21.85
2022-11-06T18:24:56.365Z,23.67
2022-11-06T18:27:24.177Z,23.05
2022-11-06T18:29:51.981Z,22.67
2022-11-06T18:32:20.161Z,25.85
2022-11-06T18:34:47.974Z,25.08
2022-11-06T18:37:15.742Z,22.50
2022-11-06T18:39:44.869Z,24.00
2022-11-06T18:42:12.666Z,26.55
2022-11-06T18:44:41.441Z,27.30
2022-11-06T18:47:09.358Z,25.92
2022-11-06T18:49:37.190Z,24.25
2022-11-06T18:52:05.017Z,25.20
2022-11-06T18:54:32.934Z,22.17
2022-11-06T18:57:02.309Z,23.88
2022-11-06T18:59:30.409Z,26.42
2022-11-06T19:01:58.785Z,24.60
2022-11-06T19:04:27.861Z,25.55
2022-11-06T19:06:56.020Z,24.60
2022-11-06T19:09:23.955Z,26.20
2022-11-06T19:11:51.789Z,24.85
2022-11-06T19:14:21.005Z,25.73
2022-11-06T19:16:49.079Z,24.63
2022-11-06T19:19:25.136Z,24.40
2022-11-06T19:21:53.938Z,24.60
2022-11-06T19:24:21.915Z,24.30
2022-11-06T19:26:50.352Z,24.13
2022-11-06T19:29:18.397Z,24.38
2022-11-06T19:31:47.540Z,29.23
2022-11-06T19:34:16.664Z,25.15
2022-11-06T19:36:44.470Z,27.00
2022-11-06T19:39:15.196Z,26.27
2022-11-06T19:41:43.073Z,30.92
2022-11-06T19:44:10.946Z,27.90
2022-11-06T19:46:39.283Z,30.33
2022-11-06T19:49:10.474Z,34.35
2022-11-06T19:51:38.709Z,26.88
2022-11-06T19:54:07.628Z,28.70
2022-11-06T19:56:35.456Z,29.30
2022-11-06T19:59:03.371Z,29.63
2022-11-06T20:01:33.893Z,26.10
2022-11-06T20:04:01.965Z,29.60
2022-11-06T20:06:31.231Z,26.30
2022-11-06T20:08:59.491Z,23.98
2022-11-06T20:11:27.317Z,24.73
2022-11-06T20:13:56.103Z,20.98
2022-11-06T20:16:24.443Z,22.77
2022-11-06T20:18:55.916Z,26.20
2022-11-06T20:21:26.285Z,25.05
2022-11-06T20:23:56.283Z,21.95
2022-11-06T20:26:24.651Z,24.83
2022-11-06T20:28:52.502Z,26.60
2022-11-06T20:31:20.571Z,26.60
2022-11-06T20:33:49.102Z,24.15
2022-11-06T20:36:20.583Z,27.17
2022-11-06T20:38:48.390Z,21.70
2022-11-06T20:41:18.119Z,19.00
2022-11-06T20:43:46.642Z,21.92
2022-11-06T20:46:16.290Z,22.50
2022-11-06T20:48:45.223Z,21.80
2022-11-06T20:51:14.503Z,20.63
2022-11-06T20:53:42.341Z,20.60
2022-11-06T20:56:12.002Z,19.38
2022-11-06T20:58:41.232Z,20.67
2022-11-06T21:01:11.329Z,20.25
2022-11-06T21:03:40.331Z,19.77
2022-11-06T21:06:08.838Z,20.98
2022-11-06T21:08:38.067Z,22.38
2022-11-06T21:11:11.392Z,20.95
2022-11-06T21:13:41.436Z,18.70
2022-11-06T21:16:12.907Z,17.58
2022-11-06T21:18:41.560Z,16.90
2022-11-06T21:21:11.787Z,19.33
2022-11-06T21:23:40.292Z,16.58
2022-11-06T21:26:09.903Z,17.60
2022-11-06T21:28:39.109Z,15.10
2022-11-06T21:31:12.054Z,16.45
2022-11-06T21:33:41.748Z,15.40
2022-11-06T21:36:12.189Z,12.82
2022-11-06T21:41:09.893Z,13.13
2022-11-06T21:43:38.959Z,13.13
2022-11-06T21:46:09.171Z,12.52
2022-11-06T21:48:46.365Z,10.68
2022-11-06T21:51:16.680Z,11.52
2022-11-06T21:54:01.952Z,11.00
2022-11-06T21:56:29.832Z,9.35
2022-11-06T21:58:59.533Z,10.35
2022-11-06T22:01:28.842Z,9.40
2022-11-06T22:03:58.189Z,9.90
2022-11-06T22:06:27.481Z,10.27
2022-11-06T22:08:56.813Z,9.27
2022-11-06T22:11:27.024Z,9.30
2022-11-06T22:13:56.888Z,9.15
2022-11-06T22:16:26.824Z,8.15
2022-11-06T22:18:55.062Z,9.35
2022-11-06T22:21:25.920Z,7.70
2022-11-06T22:23:54.582Z,6.60
2022-11-06T22:26:25.303Z,7.68
2022-11-06T22:28:53.983Z,7.63
2022-11-06T22:31:21.759Z,7.20
2022-11-06T22:33:53.727Z,8.07
2022-11-06T22:36:22.976Z,10.43
2022-11-06T22:38:52.227Z,16.45
2022-11-06T22:41:22.790Z,13.98
2022-11-06T22:46:20.597Z,11.27
2022-11-06T22:48:48.871Z,12.57
2022-11-06T22:51:18.434Z,10.60
2022-11-06T22:53:46.359Z,10.00
2022-11-06T22:56:15.535Z,9.88
2022-11-06T22:58:43.671Z,9.02
2022-11-06T23:01:12.628Z,6.45
2022-11-06T23:03:41.148Z,8.20
2022-11-06T23:06:10.654Z,7.65
2022-11-06T23:08:44.145Z,7.65
2022-11-06T23:11:17.188Z,8.77
2022-11-06T23:13:45.699Z,7.80
2022-11-06T23:16:15.446Z,8.20
2022-11-06T23:18:43.971Z,7.55
2022-11-06T23:21:13.252Z,7.15
2022-11-06T23:23:41.178Z,5.28
2022-11-06T23:26:13.376Z,5.97
2022-11-06T23:28:43.316Z,6.13
2022-11-06T23:31:13.620Z,7.28
2022-11-06T23:33:41.758Z,5.60
2022-11-06T23:36:10.882Z,5.15
2022-11-06T23:38:39.151Z,6.15
2022-11-06T23:41:28.356Z,14.20
2022-11-06T23:43:58.608Z,8.80
2022-11-06T23:46:28.124Z,11.20
2022-11-06T23:48:56.413Z,16.85
2022-11-06T23:51:25.915Z,13.27
2022-11-06T23:53:54.452Z,8.00
2022-11-06T23:56:22.397Z,7.50
2022-11-06T23:58:50.222Z,6.47
